sensor_id;sensor_type;location;lat;lon;timestamp;P1;durP1;ratioP1;P2;durP2;ratioP2
61317;SDS011;47201;40.428;-8.436;2023-05-27T00:06:00;5.57;;;3.58;;
61317;SDS011;47201;40.428;-8.436;2023-05-27T00:10:45;8.27;;;3.42;;
61317;SDS011;47201;40.428;-8.436;2023-05-27T00:12:47;5.72;;;3.97;;
61317;SDS011;47201;40.428;-8.436;2023-05-27T00:14:48;5.78;;;3.72;;
61317;SDS011;47201;40.428;-8.436;2023-05-27T00:16:48;7.57;;;4.25;;
61317;SDS011;47201;40.428;-8.436;2023-05-27T00:18:49;9.48;;;3.72;;
61317;SDS011;47201;40.428;-8.436;2023-05-27T00:20:50;5.40;;;3.70;;
61317;SDS011;47201;40.428;-8.436;2023-05-27T00:22:51;6.55;;;4.07;;
61317;SDS011;47201;40.428;-8.436;2023-05-27T00:24:52;4.20;;;3.80;;
61317;SDS011;47201;40.428;-8.436;2023-05-27T00:26:52;4.47;;;3.45;;
61317;SDS011;47201;40.428;-8.436;2023-05-27T00:28:53;5.20;;;3.40;;
61317;SDS011;47201;40.428;-8.436;2023-05-27T00:30:54;7.22;;;4.03;;
61317;SDS011;47201;40.428;-8.436;2023-05-27T00:32:54;6.38;;;4.05;;
61317;SDS011;47201;40.428;-8.436;2023-05-27T00:34:55;5.55;;;3.08;;
61317;SDS011;47201;40.428;-8.436;2023-05-27T00:36:56;8.88;;;3.97;;
61317;SDS011;47201;40.428;-8.436;2023-05-27T00:40:59;6.53;;;3.55;;
61317;SDS011;47201;40.428;-8.436;2023-05-27T00:43:01;11.90;;;3.88;;
61317;SDS011;47201;40.428;-8.436;2023-05-27T00:45:02;5.88;;;3.72;;
61317;SDS011;47201;40.428;-8.436;2023-05-27T00:47:03;4.80;;;3.75;;
61317;SDS011;47201;40.428;-8.436;2023-05-27T00:49:04;6.82;;;3.97;;
61317;SDS011;47201;40.428;-8.436;2023-05-27T00:51:05;5.57;;;3.15;;
61317;SDS011;47201;40.428;-8.436;2023-05-27T00:53:06;9.55;;;3.47;;
61317;SDS011;47201;40.428;-8.436;2023-05-27T00:55:10;5.38;;;3.22;;
61317;SDS011;47201;40.428;-8.436;2023-05-27T00:57:11;5.00;;;3.38;;
61317;SDS011;47201;40.428;-8.436;2023-05-27T00:59:12;4.95;;;3.28;;
61317;SDS011;47201;40.428;-8.436;2023-05-27T01:01:12;7.35;;;4.05;;
61317;SDS011;47201;40.428;-8.436;2023-05-27T01:03:13;5.18;;;3.63;;
61317;SDS011;47201;40.428;-8.436;2023-05-27T01:05:16;4.88;;;3.58;;
61317;SDS011;47201;40.428;-8.436;2023-05-27T01:11:32;9.73;;;4.00;;
61317;SDS011;47201;40.428;-8.436;2023-05-27T01:13:41;7.45;;;4.32;;
61317;SDS011;47201;40.428;-8.436;2023-05-27T01:15:46;16.30;;;6.70;;
61317;SDS011;47201;40.428;-8.436;2023-05-27T01:17:51;22.65;;;9.20;;
61317;SDS011;47201;40.428;-8.436;2023-05-27T01:19:56;28.88;;;11.65;;
61317;SDS011;47201;40.428;-8.436;2023-05-27T01:22:00;39.03;;;14.43;;
61317;SDS011;47201;40.428;-8.436;2023-05-27T01:24:02;52.88;;;18.08;;
61317;SDS011;47201;40.428;-8.436;2023-05-27T01:26:04;48.67;;;18.17;;
61317;SDS011;47201;40.428;-8.436;2023-05-27T01:28:06;42.55;;;15.68;;
61317;SDS011;47201;40.428;-8.436;2023-05-27T01:30:07;42.72;;;15.10;;
61317;SDS011;47201;40.428;-8.436;2023-05-27T01:32:12;40.13;;;13.35;;
61317;SDS011;47201;40.428;-8.436;2023-05-27T01:34:18;34.63;;;12.65;;
61317;SDS011;47201;40.428;-8.436;2023-05-27T01:36:26;18.85;;;8.63;;
61317;SDS011;47201;40.428;-8.436;2023-05-27T01:38:29;13.52;;;6.22;;
61317;SDS011;47201;40.428;-8.436;2023-05-27T01:40:33;14.90;;;5.45;;
61317;SDS011;47201;40.428;-8.436;2023-05-27T01:42:35;8.68;;;4.57;;
61317;SDS011;47201;40.428;-8.436;2023-05-27T01:44:38;7.53;;;3.90;;
61317;SDS011;47201;40.428;-8.436;2023-05-27T01:46:41;15.35;;;6.57;;
61317;SDS011;47201;40.428;-8.436;2023-05-27T01:48:41;17.92;;;6.53;;
61317;SDS011;47201;40.428;-8.436;2023-05-27T01:50:43;20.75;;;9.20;;
61317;SDS011;47201;40.428;-8.436;2023-05-27T01:52:43;17.50;;;8.32;;
61317;SDS011;47201;40.428;-8.436;2023-05-27T01:54:45;14.88;;;7.07;;
61317;SDS011;47201;40.428;-8.436;2023-05-27T01:56:46;14.02;;;6.60;;
61317;SDS011;47201;40.428;-8.436;2023-05-27T01:58:47;11.05;;;4.90;;
61317;SDS011;47201;40.428;-8.436;2023-05-27T02:00:48;7.03;;;4.50;;
61317;SDS011;47201;40.428;-8.436;2023-05-27T02:02:49;8.35;;;5.20;;
61317;SDS011;47201;40.428;-8.436;2023-05-27T02:04:51;8.52;;;5.40;;
61317;SDS011;47201;40.428;-8.436;2023-05-27T02:06:52;9.98;;;5.60;;
61317;SDS011;47201;40.428;-8.436;2023-05-27T02:08:53;10.88;;;5.80;;
61317;SDS011;47201;40.428;-8.436;2023-05-27T02:10:53;5.28;;;4.53;;
61317;SDS011;47201;40.428;-8.436;2023-05-27T02:12:54;16.05;;;7.45;;
61317;SDS011;47201;40.428;-8.436;2023-05-27T02:14:55;18.83;;;7.35;;
61317;SDS011;47201;40.428;-8.436;2023-05-27T02:16:55;22.08;;;7.43;;
61317;SDS011;47201;40.428;-8.436;2023-05-27T02:18:56;17.67;;;8.10;;
61317;SDS011;47201;40.428;-8.436;2023-05-27T02:20:57;20.20;;;7.63;;
61317;SDS011;47201;40.428;-8.436;2023-05-27T02:22:57;21.15;;;7.80;;
61317;SDS011;47201;40.428;-8.436;2023-05-27T02:24:58;31.15;;;9.77;;
61317;SDS011;47201;40.428;-8.436;2023-05-27T02:26:59;20.27;;;6.60;;
61317;SDS011;47201;40.428;-8.436;2023-05-27T02:29:00;13.00;;;5.57;;
61317;SDS011;47201;40.428;-8.436;2023-05-27T02:31:01;13.73;;;6.47;;
61317;SDS011;47201;40.428;-8.436;2023-05-27T02:33:02;12.38;;;5.53;;
61317;SDS011;47201;40.428;-8.436;2023-05-27T02:35:03;17.05;;;5.30;;
61317;SDS011;47201;40.428;-8.436;2023-05-27T02:37:04;6.93;;;5.00;;
61317;SDS011;47201;40.428;-8.436;2023-05-27T02:39:05;10.90;;;4.05;;
61317;SDS011;47201;40.428;-8.436;2023-05-27T02:41:06;9.40;;;4.70;;
61317;SDS011;47201;40.428;-8.436;2023-05-27T02:43:11;6.45;;;3.85;;
61317;SDS011;47201;40.428;-8.436;2023-05-27T02:45:11;11.52;;;5.55;;
61317;SDS011;47201;40.428;-8.436;2023-05-27T02:47:12;12.23;;;5.10;;
61317;SDS011;47201;40.428;-8.436;2023-05-27T02:49:13;30.92;;;10.55;;
61317;SDS011;47201;40.428;-8.436;2023-05-27T02:53:15;50.90;;;17.20;;
61317;SDS011;47201;40.428;-8.436;2023-05-27T02:55:17;42.83;;;14.20;;
61317;SDS011;47201;40.428;-8.436;2023-05-27T02:57:17;52.35;;;18.55;;
61317;SDS011;47201;40.428;-8.436;2023-05-27T02:59:19;63.70;;;20.30;;
61317;SDS011;47201;40.428;-8.436;2023-05-27T03:01:20;46.45;;;17.65;;
61317;SDS011;47201;40.428;-8.436;2023-05-27T03:03:21;43.80;;;15.30;;
61317;SDS011;47201;40.428;-8.436;2023-05-27T03:05:22;51.88;;;18.35;;
61317;SDS011;47201;40.428;-8.436;2023-05-27T03:07:23;37.85;;;14.25;;
61317;SDS011;47201;40.428;-8.436;2023-05-27T03:09:24;36.05;;;11.85;;
61317;SDS011;47201;40.428;-8.436;2023-05-27T03:11:25;32.35;;;12.25;;
61317;SDS011;47201;40.428;-8.436;2023-05-27T03:13:26;24.33;;;11.13;;
61317;SDS011;47201;40.428;-8.436;2023-05-27T03:15:27;30.77;;;9.25;;
61317;SDS011;47201;40.428;-8.436;2023-05-27T03:17:32;26.02;;;9.25;;
61317;SDS011;47201;40.428;-8.436;2023-05-27T03:19:40;23.65;;;9.52;;
61317;SDS011;47201;40.428;-8.436;2023-05-27T03:21:41;30.02;;;10.52;;
61317;SDS011;47201;40.428;-8.436;2023-05-27T03:23:42;23.90;;;10.05;;
61317;SDS011;47201;40.428;-8.436;2023-05-27T03:25:43;28.05;;;10.32;;
61317;SDS011;47201;40.428;-8.436;2023-05-27T03:27:44;26.75;;;10.93;;
61317;SDS011;47201;40.428;-8.436;2023-05-27T03:29:48;26.58;;;11.25;;
61317;SDS011;47201;40.428;-8.436;2023-05-27T03:31:49;21.65;;;8.38;;
61317;SDS011;47201;40.428;-8.436;2023-05-27T03:33:52;23.95;;;8.82;;
61317;SDS011;47201;40.428;-8.436;2023-05-27T03:35:52;21.92;;;8.45;;
61317;SDS011;47201;40.428;-8.436;2023-05-27T03:37:55;12.82;;;6.20;;
61317;SDS011;47201;40.428;-8.436;2023-05-27T03:39:56;10.52;;;5.82;;
61317;SDS011;47201;40.428;-8.436;2023-05-27T03:41:58;13.02;;;6.22;;
61317;SDS011;47201;40.428;-8.436;2023-05-27T03:43:59;18.30;;;6.93;;
61317;SDS011;47201;40.428;-8.436;2023-05-27T03:48:02;20.25;;;8.20;;
61317;SDS011;47201;40.428;-8.436;2023-05-27T03:50:03;35.50;;;13.68;;
61317;SDS011;47201;40.428;-8.436;2023-05-27T03:52:05;47.00;;;17.20;;
61317;SDS011;47201;40.428;-8.436;2023-05-27T03:54:06;28.02;;;12.18;;
61317;SDS011;47201;40.428;-8.436;2023-05-27T03:56:07;17.40;;;7.38;;
61317;SDS011;47201;40.428;-8.436;2023-05-27T03:58:10;33.58;;;10.60;;
61317;SDS011;47201;40.428;-8.436;2023-05-27T04:00:13;29.58;;;9.32;;
61317;SDS011;47201;40.428;-8.436;2023-05-27T04:02:24;23.17;;;9.45;;
61317;SDS011;47201;40.428;-8.436;2023-05-27T04:04:26;15.98;;;7.35;;
61317;SDS011;47201;40.428;-8.436;2023-05-27T04:06:27;25.58;;;11.30;;
61317;SDS011;47201;40.428;-8.436;2023-05-27T04:08:28;26.60;;;9.40;;
61317;SDS011;47201;40.428;-8.436;2023-05-27T04:10:29;15.02;;;6.97;;
61317;SDS011;47201;40.428;-8.436;2023-05-27T04:12:30;13.88;;;6.28;;
61317;SDS011;47201;40.428;-8.436;2023-05-27T04:14:30;12.40;;;5.68;;
61317;SDS011;47201;40.428;-8.436;2023-05-27T04:18:34;10.63;;;5.57;;
61317;SDS011;47201;40.428;-8.436;2023-05-27T04:20:37;7.50;;;4.82;;
61317;SDS011;47201;40.428;-8.436;2023-05-27T04:22:43;6.45;;;4.60;;
61317;SDS011;47201;40.428;-8.436;2023-05-27T04:24:45;14.07;;;6.00;;
61317;SDS011;47201;40.428;-8.436;2023-05-27T04:28:49;7.05;;;4.50;;
61317;SDS011;47201;40.428;-8.436;2023-05-27T04:30:50;12.20;;;4.95;;
61317;SDS011;47201;40.428;-8.436;2023-05-27T04:33:09;14.95;;;6.07;;
61317;SDS011;47201;40.428;-8.436;2023-05-27T04:35:11;11.25;;;5.50;;
61317;SDS011;47201;40.428;-8.436;2023-05-27T04:37:12;8.10;;;4.95;;
61317;SDS011;47201;40.428;-8.436;2023-05-27T04:39:13;7.32;;;5.22;;
61317;SDS011;47201;40.428;-8.436;2023-05-27T04:41:17;12.27;;;4.85;;
61317;SDS011;47201;40.428;-8.436;2023-05-27T04:43:35;10.70;;;5.55;;
61317;SDS011;47201;40.428;-8.436;2023-05-27T04:45:36;11.65;;;5.07;;
61317;SDS011;47201;40.428;-8.436;2023-05-27T04:47:37;12.68;;;6.57;;
61317;SDS011;47201;40.428;-8.436;2023-05-27T04:49:41;19.15;;;6.82;;
61317;SDS011;47201;40.428;-8.436;2023-05-27T04:51:42;10.88;;;6.90;;
61317;SDS011;47201;40.428;-8.436;2023-05-27T04:55:45;13.90;;;7.57;;
61317;SDS011;47201;40.428;-8.436;2023-05-27T04:57:46;14.77;;;8.60;;
61317;SDS011;47201;40.428;-8.436;2023-05-27T04:59:48;16.98;;;7.63;;
61317;SDS011;47201;40.428;-8.436;2023-05-27T05:01:59;17.45;;;9.13;;
61317;SDS011;47201;40.428;-8.436;2023-05-27T05:04:33;12.43;;;8.27;;
61317;SDS011;47201;40.428;-8.436;2023-05-27T05:06:37;14.40;;;5.50;;
61317;SDS011;47201;40.428;-8.436;2023-05-27T05:08:40;15.95;;;8.98;;
61317;SDS011;47201;40.428;-8.436;2023-05-27T05:10:40;16.63;;;8.55;;
61317;SDS011;47201;40.428;-8.436;2023-05-27T05:12:41;20.40;;;6.55;;
61317;SDS011;47201;40.428;-8.436;2023-05-27T05:14:42;15.30;;;6.47;;
61317;SDS011;47201;40.428;-8.436;2023-05-27T05:16:43;13.55;;;5.88;;
61317;SDS011;47201;40.428;-8.436;2023-05-27T05:18:43;16.27;;;8.15;;
61317;SDS011;47201;40.428;-8.436;2023-05-27T05:20:45;10.98;;;6.78;;
61317;SDS011;47201;40.428;-8.436;2023-05-27T05:22:48;19.65;;;9.60;;
61317;SDS011;47201;40.428;-8.436;2023-05-27T05:24:49;15.48;;;9.02;;
61317;SDS011;47201;40.428;-8.436;2023-05-27T05:26:51;12.73;;;6.75;;
61317;SDS011;47201;40.428;-8.436;2023-05-27T05:28:52;19.20;;;9.75;;
61317;SDS011;47201;40.428;-8.436;2023-05-27T05:30:53;11.27;;;6.80;;
61317;SDS011;47201;40.428;-8.436;2023-05-27T05:32:55;21.73;;;9.52;;
61317;SDS011;47201;40.428;-8.436;2023-05-27T05:34:57;16.27;;;9.75;;
61317;SDS011;47201;40.428;-8.436;2023-05-27T05:36:58;11.02;;;6.28;;
61317;SDS011;47201;40.428;-8.436;2023-05-27T05:38:59;16.52;;;9.20;;
61317;SDS011;47201;40.428;-8.436;2023-05-27T05:41:00;14.77;;;9.70;;
61317;SDS011;47201;40.428;-8.436;2023-05-27T05:43:00;10.73;;;6.45;;
61317;SDS011;47201;40.428;-8.436;2023-05-27T05:45:01;13.20;;;7.15;;
61317;SDS011;47201;40.428;-8.436;2023-05-27T05:47:05;11.40;;;6.63;;
61317;SDS011;47201;40.428;-8.436;2023-05-27T05:49:07;14.32;;;8.02;;
61317;SDS011;47201;40.428;-8.436;2023-05-27T05:51:12;12.13;;;7.28;;
61317;SDS011;47201;40.428;-8.436;2023-05-27T05:53:16;15.70;;;7.85;;
61317;SDS011;47201;40.428;-8.436;2023-05-27T05:55:17;12.27;;;7.50;;
61317;SDS011;47201;40.428;-8.436;2023-05-27T05:57:18;9.93;;;5.80;;
61317;SDS011;47201;40.428;-8.436;2023-05-27T05:59:19;13.75;;;7.00;;
61317;SDS011;47201;40.428;-8.436;2023-05-27T06:03:21;12.23;;;6.50;;
61317;SDS011;47201;40.428;-8.436;2023-05-27T06:05:28;9.45;;;6.72;;
61317;SDS011;47201;40.428;-8.436;2023-05-27T06:07:29;10.77;;;5.07;;
61317;SDS011;47201;40.428;-8.436;2023-05-27T06:09:41;10.60;;;5.78;;
61317;SDS011;47201;40.428;-8.436;2023-05-27T06:11:50;6.68;;;4.43;;
61317;SDS011;47201;40.428;-8.436;2023-05-27T06:13:52;10.63;;;5.03;;
61317;SDS011;47201;40.428;-8.436;2023-05-27T06:15:54;9.15;;;5.97;;
61317;SDS011;47201;40.428;-8.436;2023-05-27T06:17:58;11.43;;;5.25;;
61317;SDS011;47201;40.428;-8.436;2023-05-27T06:19:59;16.02;;;5.88;;
61317;SDS011;47201;40.428;-8.436;2023-05-27T06:22:00;12.48;;;5.55;;
61317;SDS011;47201;40.428;-8.436;2023-05-27T06:24:19;8.63;;;5.75;;
61317;SDS011;47201;40.428;-8.436;2023-05-27T06:26:25;9.93;;;5.35;;
61317;SDS011;47201;40.428;-8.436;2023-05-27T06:28:30;10.00;;;5.28;;
61317;SDS011;47201;40.428;-8.436;2023-05-27T06:30:31;10.80;;;5.18;;
61317;SDS011;47201;40.428;-8.436;2023-05-27T06:32:34;14.95;;;6.07;;
61317;SDS011;47201;40.428;-8.436;2023-05-27T06:34:35;8.70;;;5.13;;
61317;SDS011;47201;40.428;-8.436;2023-05-27T06:36:36;7.97;;;5.10;;
61317;SDS011;47201;40.428;-8.436;2023-05-27T06:38:36;8.10;;;5.03;;
61317;SDS011;47201;40.428;-8.436;2023-05-27T06:40:37;8.65;;;5.45;;
61317;SDS011;47201;40.428;-8.436;2023-05-27T06:42:42;8.02;;;4.38;;
61317;SDS011;47201;40.428;-8.436;2023-05-27T06:45:22;16.48;;;5.63;;
61317;SDS011;47201;40.428;-8.436;2023-05-27T06:47:29;6.78;;;5.10;;
61317;SDS011;47201;40.428;-8.436;2023-05-27T06:49:30;8.00;;;3.95;;
61317;SDS011;47201;40.428;-8.436;2023-05-27T06:51:32;6.88;;;4.43;;
61317;SDS011;47201;40.428;-8.436;2023-05-27T06:53:34;6.75;;;4.22;;
61317;SDS011;47201;40.428;-8.436;2023-05-27T06:55:40;8.35;;;5.38;;
61317;SDS011;47201;40.428;-8.436;2023-05-27T06:58:01;5.90;;;5.00;;
61317;SDS011;47201;40.428;-8.436;2023-05-27T07:00:12;8.73;;;4.68;;
61317;SDS011;47201;40.428;-8.436;2023-05-27T07:04:24;8.07;;;4.47;;
61317;SDS011;47201;40.428;-8.436;2023-05-27T07:06:34;6.82;;;5.03;;
61317;SDS011;47201;40.428;-8.436;2023-05-27T07:08:37;15.55;;;5.25;;
61317;SDS011;47201;40.428;-8.436;2023-05-27T07:10:47;13.03;;;5.30;;
61317;SDS011;47201;40.428;-8.436;2023-05-27T07:12:48;12.48;;;5.13;;
61317;SDS011;47201;40.428;-8.436;2023-05-27T07:14:59;8.00;;;4.72;;
61317;SDS011;47201;40.428;-8.436;2023-05-27T07:17:01;7.95;;;4.82;;
61317;SDS011;47201;40.428;-8.436;2023-05-27T07:19:02;6.53;;;4.22;;
61317;SDS011;47201;40.428;-8.436;2023-05-27T07:21:07;10.70;;;4.93;;
61317;SDS011;47201;40.428;-8.436;2023-05-27T07:25:12;17.38;;;4.95;;
61317;SDS011;47201;40.428;-8.436;2023-05-27T07:29:19;11.95;;;4.82;;
61317;SDS011;47201;40.428;-8.436;2023-05-27T07:31:27;11.63;;;4.88;;
61317;SDS011;47201;40.428;-8.436;2023-05-27T07:33:33;7.43;;;5.20;;
61317;SDS011;47201;40.428;-8.436;2023-05-27T07:35:34;13.80;;;5.70;;
61317;SDS011;47201;40.428;-8.436;2023-05-27T07:39:35;10.43;;;5.30;;
61317;SDS011;47201;40.428;-8.436;2023-05-27T07:41:36;13.38;;;5.20;;
61317;SDS011;47201;40.428;-8.436;2023-05-27T07:43:40;15.80;;;5.03;;
61317;SDS011;47201;40.428;-8.436;2023-05-27T07:45:41;11.07;;;4.75;;
61317;SDS011;47201;40.428;-8.436;2023-05-27T07:49:42;15.07;;;5.32;;
61317;SDS011;47201;40.428;-8.436;2023-05-27T07:52:09;12.30;;;4.43;;
61317;SDS011;47201;40.428;-8.436;2023-05-27T07:54:10;10.10;;;4.30;;
61317;SDS011;47201;40.428;-8.436;2023-05-27T07:56:11;12.57;;;5.20;;
61317;SDS011;47201;40.428;-8.436;2023-05-27T07:58:12;11.60;;;5.53;;
61317;SDS011;47201;40.428;-8.436;2023-05-27T08:00:40;10.98;;;4.65;;
61317;SDS011;47201;40.428;-8.436;2023-05-27T08:02:41;14.10;;;5.07;;
61317;SDS011;47201;40.428;-8.436;2023-05-27T08:04:43;11.07;;;5.68;;
61317;SDS011;47201;40.428;-8.436;2023-05-27T08:06:58;11.30;;;5.18;;
61317;SDS011;47201;40.428;-8.436;2023-05-27T08:09:06;12.88;;;4.80;;
61317;SDS011;47201;40.428;-8.436;2023-05-27T08:11:26;9.60;;;5.00;;
61317;SDS011;47201;40.428;-8.436;2023-05-27T08:13:38;12.88;;;5.38;;
61317;SDS011;47201;40.428;-8.436;2023-05-27T08:16:08;8.23;;;4.97;;
61317;SDS011;47201;40.428;-8.436;2023-05-27T08:18:18;15.27;;;5.28;;
61317;SDS011;47201;40.428;-8.436;2023-05-27T08:20:39;10.68;;;4.82;;
61317;SDS011;47201;40.428;-8.436;2023-05-27T08:22:56;8.98;;;4.75;;
61317;SDS011;47201;40.428;-8.436;2023-05-27T08:25:35;9.93;;;4.20;;
61317;SDS011;47201;40.428;-8.436;2023-05-27T08:27:42;10.50;;;4.90;;
61317;SDS011;47201;40.428;-8.436;2023-05-27T08:29:49;9.30;;;4.45;;
61317;SDS011;47201;40.428;-8.436;2023-05-27T08:31:58;10.60;;;4.75;;
61317;SDS011;47201;40.428;-8.436;2023-05-27T08:34:01;17.10;;;4.78;;
61317;SDS011;47201;40.428;-8.436;2023-05-27T08:36:01;11.10;;;4.57;;
61317;SDS011;47201;40.428;-8.436;2023-05-27T08:38:02;10.02;;;4.57;;
61317;SDS011;47201;40.428;-8.436;2023-05-27T08:40:10;13.57;;;4.80;;
61317;SDS011;47201;40.428;-8.436;2023-05-27T08:42:16;12.20;;;4.95;;
61317;SDS011;47201;40.428;-8.436;2023-05-27T08:44:17;11.68;;;4.78;;
61317;SDS011;47201;40.428;-8.436;2023-05-27T08:46:19;8.73;;;4.07;;
61317;SDS011;47201;40.428;-8.436;2023-05-27T08:48:21;10.60;;;5.22;;
61317;SDS011;47201;40.428;-8.436;2023-05-27T08:50:22;10.15;;;4.63;;
61317;SDS011;47201;40.428;-8.436;2023-05-27T08:52:23;10.63;;;5.05;;
61317;SDS011;47201;40.428;-8.436;2023-05-27T08:54:25;12.75;;;5.13;;
61317;SDS011;47201;40.428;-8.436;2023-05-27T08:56:28;9.35;;;4.55;;
61317;SDS011;47201;40.428;-8.436;2023-05-27T08:58:32;6.40;;;4.45;;
61317;SDS011;47201;40.428;-8.436;2023-05-27T09:00:33;23.48;;;6.25;;
61317;SDS011;47201;40.428;-8.436;2023-05-27T09:02:44;13.70;;;6.05;;
61317;SDS011;47201;40.428;-8.436;2023-05-27T09:04:45;12.73;;;5.43;;
61317;SDS011;47201;40.428;-8.436;2023-05-27T09:06:46;11.48;;;5.25;;
61317;SDS011;47201;40.428;-8.436;2023-05-27T09:08:46;12.13;;;6.20;;
61317;SDS011;47201;40.428;-8.436;2023-05-27T09:10:47;11.18;;;5.57;;
61317;SDS011;47201;40.428;-8.436;2023-05-27T09:12:48;10.10;;;5.43;;
61317;SDS011;47201;40.428;-8.436;2023-05-27T09:14:51;7.72;;;4.22;;
61317;SDS011;47201;40.428;-8.436;2023-05-27T09:16:52;6.55;;;3.72;;
61317;SDS011;47201;40.428;-8.436;2023-05-27T09:18:52;9.68;;;4.05;;
61317;SDS011;47201;40.428;-8.436;2023-05-27T09:20:53;4.97;;;3.30;;
61317;SDS011;47201;40.428;-8.436;2023-05-27T09:22:59;7.97;;;3.40;;
61317;SDS011;47201;40.428;-8.436;2023-05-27T09:25:01;6.05;;;3.58;;
61317;SDS011;47201;40.428;-8.436;2023-05-27T09:27:01;3.47;;;3.10;;
61317;SDS011;47201;40.428;-8.436;2023-05-27T09:29:05;7.32;;;4.00;;
61317;SDS011;47201;40.428;-8.436;2023-05-27T09:31:09;6.10;;;3.35;;
61317;SDS011;47201;40.428;-8.436;2023-05-27T09:33:10;8.27;;;3.60;;
61317;SDS011;47201;40.428;-8.436;2023-05-27T09:35:10;3.85;;;3.28;;
61317;SDS011;47201;40.428;-8.436;2023-05-27T09:37:12;7.57;;;3.88;;
61317;SDS011;47201;40.428;-8.436;2023-05-27T09:39:17;6.35;;;3.30;;
61317;SDS011;47201;40.428;-8.436;2023-05-27T09:41:23;7.82;;;3.30;;
61317;SDS011;47201;40.428;-8.436;2023-05-27T09:43:26;13.57;;;3.88;;
61317;SDS011;47201;40.428;-8.436;2023-05-27T09:45:27;4.93;;;3.45;;
61317;SDS011;47201;40.428;-8.436;2023-05-27T09:47:28;6.43;;;3.10;;
61317;SDS011;47201;40.428;-8.436;2023-05-27T09:49:29;5.75;;;3.53;;
61317;SDS011;47201;40.428;-8.436;2023-05-27T09:51:32;4.47;;;3.50;;
61317;SDS011;47201;40.428;-8.436;2023-05-27T09:53:36;9.40;;;3.75;;
61317;SDS011;47201;40.428;-8.436;2023-05-27T09:55:41;9.70;;;3.97;;
61317;SDS011;47201;40.428;-8.436;2023-05-27T09:57:42;9.55;;;3.40;;
61317;SDS011;47201;40.428;-8.436;2023-05-27T09:59:45;6.35;;;3.50;;
61317;SDS011;47201;40.428;-8.436;2023-05-27T10:01:46;6.18;;;3.50;;
61317;SDS011;47201;40.428;-8.436;2023-05-27T10:03:47;6.90;;;3.95;;
61317;SDS011;47201;40.428;-8.436;2023-05-27T10:05:50;5.95;;;3.58;;
61317;SDS011;47201;40.428;-8.436;2023-05-27T10:07:51;7.22;;;3.40;;
61317;SDS011;47201;40.428;-8.436;2023-05-27T10:09:52;7.45;;;3.47;;
61317;SDS011;47201;40.428;-8.436;2023-05-27T10:11:54;9.27;;;3.58;;
61317;SDS011;47201;40.428;-8.436;2023-05-27T10:13:55;13.30;;;4.38;;
61317;SDS011;47201;40.428;-8.436;2023-05-27T10:15:56;5.60;;;3.50;;
61317;SDS011;47201;40.428;-8.436;2023-05-27T10:17:58;11.23;;;3.85;;
61317;SDS011;47201;40.428;-8.436;2023-05-27T10:20:00;8.18;;;4.28;;
61317;SDS011;47201;40.428;-8.436;2023-05-27T10:22:10;5.47;;;3.40;;
61317;SDS011;47201;40.428;-8.436;2023-05-27T10:24:11;5.83;;;4.20;;
61317;SDS011;47201;40.428;-8.436;2023-05-27T10:26:12;8.48;;;3.92;;
61317;SDS011;47201;40.428;-8.436;2023-05-27T10:28:25;7.80;;;3.90;;
61317;SDS011;47201;40.428;-8.436;2023-05-27T10:30:45;7.93;;;3.80;;
61317;SDS011;47201;40.428;-8.436;2023-05-27T10:32:49;6.82;;;3.60;;
61317;SDS011;47201;40.428;-8.436;2023-05-27T10:34:50;4.63;;;3.53;;
61317;SDS011;47201;40.428;-8.436;2023-05-27T10:36:59;8.73;;;3.55;;
61317;SDS011;47201;40.428;-8.436;2023-05-27T10:39:04;7.15;;;4.10;;
61317;SDS011;47201;40.428;-8.436;2023-05-27T10:41:06;8.23;;;3.97;;
61317;SDS011;47201;40.428;-8.436;2023-05-27T10:43:14;8.13;;;4.20;;
61317;SDS011;47201;40.428;-8.436;2023-05-27T10:45:18;5.20;;;3.50;;
61317;SDS011;47201;40.428;-8.436;2023-05-27T10:47:19;10.40;;;4.28;;
61317;SDS011;47201;40.428;-8.436;2023-05-27T10:49:33;10.20;;;4.15;;
61317;SDS011;47201;40.428;-8.436;2023-05-27T10:51:39;7.13;;;4.22;;
61317;SDS011;47201;40.428;-8.436;2023-05-27T10:53:40;7.88;;;4.18;;
61317;SDS011;47201;40.428;-8.436;2023-05-27T10:55:41;8.35;;;4.00;;
61317;SDS011;47201;40.428;-8.436;2023-05-27T10:57:42;10.13;;;3.70;;
61317;SDS011;47201;40.428;-8.436;2023-05-27T10:59:49;9.20;;;3.70;;
61317;SDS011;47201;40.428;-8.436;2023-05-27T11:01:53;10.32;;;3.70;;
61317;SDS011;47201;40.428;-8.436;2023-05-27T11:03:54;7.68;;;3.30;;
61317;SDS011;47201;40.428;-8.436;2023-05-27T11:06:01;15.35;;;4.25;;
61317;SDS011;47201;40.428;-8.436;2023-05-27T11:08:05;7.43;;;3.65;;
61317;SDS011;47201;40.428;-8.436;2023-05-27T11:10:12;9.10;;;3.60;;
61317;SDS011;47201;40.428;-8.436;2023-05-27T11:12:17;6.13;;;3.40;;
61317;SDS011;47201;40.428;-8.436;2023-05-27T11:14:19;6.68;;;3.58;;
61317;SDS011;47201;40.428;-8.436;2023-05-27T11:16:20;11.95;;;3.63;;
61317;SDS011;47201;40.428;-8.436;2023-05-27T11:18:20;7.22;;;3.50;;
61317;SDS011;47201;40.428;-8.436;2023-05-27T11:20:21;6.43;;;3.17;;
61317;SDS011;47201;40.428;-8.436;2023-05-27T11:22:22;12.77;;;3.53;;
61317;SDS011;47201;40.428;-8.436;2023-05-27T11:24:22;6.00;;;3.10;;
61317;SDS011;47201;40.428;-8.436;2023-05-27T11:26:23;6.82;;;3.50;;
61317;SDS011;47201;40.428;-8.436;2023-05-27T11:28:24;6.45;;;3.67;;
61317;SDS011;47201;40.428;-8.436;2023-05-27T11:30:25;8.32;;;3.78;;
61317;SDS011;47201;40.428;-8.436;2023-05-27T11:32:27;10.45;;;3.70;;
61317;SDS011;47201;40.428;-8.436;2023-05-27T11:34:35;7.90;;;2.90;;
61317;SDS011;47201;40.428;-8.436;2023-05-27T11:36:36;4.28;;;3.13;;
61317;SDS011;47201;40.428;-8.436;2023-05-27T11:40:48;4.70;;;2.70;;
61317;SDS011;47201;40.428;-8.436;2023-05-27T11:42:48;10.02;;;3.50;;
61317;SDS011;47201;40.428;-8.436;2023-05-27T11:44:50;8.40;;;3.63;;
61317;SDS011;47201;40.428;-8.436;2023-05-27T11:46:52;6.18;;;2.90;;
61317;SDS011;47201;40.428;-8.436;2023-05-27T11:49:00;8.18;;;3.40;;
61317;SDS011;47201;40.428;-8.436;2023-05-27T11:51:00;6.57;;;3.15;;
61317;SDS011;47201;40.428;-8.436;2023-05-27T11:53:02;12.38;;;3.58;;
61317;SDS011;47201;40.428;-8.436;2023-05-27T11:55:13;6.65;;;3.33;;
61317;SDS011;47201;40.428;-8.436;2023-05-27T11:57:14;9.00;;;3.50;;
61317;SDS011;47201;40.428;-8.436;2023-05-27T11:59:15;7.22;;;2.85;;
61317;SDS011;47201;40.428;-8.436;2023-05-27T12:01:16;10.10;;;3.30;;
61317;SDS011;47201;40.428;-8.436;2023-05-27T12:03:17;6.60;;;3.30;;
61317;SDS011;47201;40.428;-8.436;2023-05-27T12:05:17;9.93;;;3.60;;
61317;SDS011;47201;40.428;-8.436;2023-05-27T12:07:18;6.75;;;2.97;;
61317;SDS011;47201;40.428;-8.436;2023-05-27T12:09:18;8.68;;;3.60;;
61317;SDS011;47201;40.428;-8.436;2023-05-27T12:11:19;11.60;;;3.75;;
61317;SDS011;47201;40.428;-8.436;2023-05-27T12:13:22;10.20;;;3.70;;
61317;SDS011;47201;40.428;-8.436;2023-05-27T12:15:23;7.05;;;3.20;;
61317;SDS011;47201;40.428;-8.436;2023-05-27T12:17:25;8.90;;;3.45;;
61317;SDS011;47201;40.428;-8.436;2023-05-27T12:19:26;8.30;;;3.33;;
61317;SDS011;47201;40.428;-8.436;2023-05-27T12:21:28;11.98;;;3.63;;
61317;SDS011;47201;40.428;-8.436;2023-05-27T12:23:29;8.43;;;3.03;;
61317;SDS011;47201;40.428;-8.436;2023-05-27T12:25:30;8.05;;;3.50;;
61317;SDS011;47201;40.428;-8.436;2023-05-27T12:27:31;14.82;;;3.58;;
61317;SDS011;47201;40.428;-8.436;2023-05-27T12:29:31;12.25;;;3.90;;
61317;SDS011;47201;40.428;-8.436;2023-05-27T12:31:34;9.20;;;3.65;;
61317;SDS011;47201;40.428;-8.436;2023-05-27T12:33:35;6.90;;;3.33;;
61317;SDS011;47201;40.428;-8.436;2023-05-27T12:35:36;9.35;;;3.50;;
61317;SDS011;47201;40.428;-8.436;2023-05-27T12:37:36;7.95;;;3.17;;
61317;SDS011;47201;40.428;-8.436;2023-05-27T12:39:37;11.73;;;4.13;;
61317;SDS011;47201;40.428;-8.436;2023-05-27T12:41:40;8.40;;;3.45;;
61317;SDS011;47201;40.428;-8.436;2023-05-27T12:43:41;8.55;;;3.80;;